createdAt,value
2019-03-26T00:01:44.454Z,7.00
2019-03-26T00:04:32.942Z,7.10
2019-03-26T00:07:21.682Z,7.00
2019-03-26T00:10:09.876Z,7.00
2019-03-26T00:12:58.705Z,7.00
2019-03-26T00:15:48.041Z,7.00
2019-03-26T00:18:36.356Z,6.90
2019-03-26T00:21:25.151Z,7.00
2019-03-26T00:24:14.174Z,7.00
2019-03-26T00:27:02.967Z,7.00
2019-03-26T00:29:51.093Z,7.00
2019-03-26T00:32:40.407Z,7.00
2019-03-26T00:35:29.058Z,7.00
2019-03-26T00:38:17.767Z,6.90
2019-03-26T00:41:06.639Z,6.90
2019-03-26T00:43:55.662Z,6.80
2019-03-26T00:46:43.910Z,6.80
2019-03-26T00:49:33.004Z,6.80
2019-03-26T00:52:21.455Z,6.80
2019-03-26T00:55:22.016Z,6.80
2019-03-26T00:58:01.865Z,6.80
2019-03-26T01:00:51.617Z,6.90
2019-03-26T01:03:40.826Z,6.90
2019-03-26T01:06:29.824Z,6.90
2019-03-26T01:09:18.731Z,6.80
2019-03-26T01:12:08.162Z,6.90
2019-03-26T01:14:56.791Z,6.90
2019-03-26T01:17:46.226Z,7.00
2019-03-26T01:20:35.310Z,7.10
2019-03-26T01:23:24.318Z,7.00
2019-03-26T01:26:12.820Z,7.00
2019-03-26T01:29:02.443Z,7.00
2019-03-26T01:31:51.299Z,7.10
2019-03-26T01:34:45.793Z,7.20
2019-03-26T01:37:30.324Z,7.20
2019-03-26T01:40:19.379Z,7.10
2019-03-26T01:43:08.250Z,7.00
2019-03-26T01:45:57.256Z,6.90
2019-03-26T01:48:46.739Z,6.90
2019-03-26T01:51:35.050Z,6.90
2019-03-26T01:54:24.465Z,6.90
2019-03-26T01:57:13.653Z,6.70
2019-03-26T02:00:02.196Z,6.70
2019-03-26T02:02:51.252Z,6.60
2019-03-26T02:05:39.688Z,6.70
2019-03-26T02:08:28.440Z,6.70
2019-03-26T02:11:16.996Z,6.60
2019-03-26T02:14:05.468Z,6.60
2019-03-26T02:16:53.932Z,6.60
2019-03-26T02:19:42.204Z,6.70
2019-03-26T02:22:30.550Z,6.70
2019-03-26T02:25:18.899Z,6.70
2019-03-26T02:28:07.281Z,6.70
2019-03-26T02:30:56.401Z,6.70
2019-03-26T02:33:45.322Z,6.60
2019-03-26T02:36:34.028Z,6.60
2019-03-26T02:39:22.971Z,6.80
2019-03-26T02:42:12.015Z,6.70
2019-03-26T02:45:00.848Z,6.70
2019-03-26T02:47:49.525Z,6.60
2019-03-26T02:50:38.547Z,6.70
2019-03-26T02:53:27.508Z,6.70
2019-03-26T02:56:16.350Z,6.60
2019-03-26T02:59:04.793Z,6.60
2019-03-26T03:01:53.411Z,6.50
2019-03-26T03:04:42.233Z,6.50
2019-03-26T03:07:30.736Z,6.40
2019-03-26T03:10:19.438Z,6.40
2019-03-26T03:13:08.540Z,6.40
2019-03-26T03:15:56.976Z,6.40
2019-03-26T03:18:45.872Z,6.50
2019-03-26T03:21:34.579Z,6.50
2019-03-26T03:24:23.238Z,6.40
2019-03-26T03:27:12.219Z,6.40
2019-03-26T03:30:00.563Z,6.40
2019-03-26T03:32:49.270Z,6.30
2019-03-26T03:35:51.384Z,6.30
2019-03-26T03:38:27.616Z,6.40
2019-03-26T03:41:16.540Z,6.60
2019-03-26T03:44:05.692Z,6.60
2019-03-26T03:46:56.144Z,6.70
2019-03-26T03:49:45.671Z,6.60
2019-03-26T03:52:39.093Z,6.60
2019-03-26T03:55:27.488Z,6.70
2019-03-26T03:58:18.106Z,6.70
2019-03-26T04:01:06.747Z,6.70
2019-03-26T04:03:55.670Z,6.70
2019-03-26T04:06:44.244Z,6.70
2019-03-26T04:09:33.210Z,6.70
2019-03-26T04:12:22.195Z,6.60
2019-03-26T04:15:10.993Z,6.60
2019-03-26T04:17:59.546Z,6.60
2019-03-26T04:20:48.654Z,6.50
2019-03-26T04:23:37.707Z,6.50
2019-03-26T04:26:26.174Z,6.60
2019-03-26T04:29:14.593Z,6.60
2019-03-26T04:32:03.923Z,6.60
2019-03-26T04:34:52.934Z,6.50
2019-03-26T04:37:41.051Z,6.50
2019-03-26T04:40:30.282Z,6.40
2019-03-26T04:43:19.536Z,6.40
2019-03-26T04:46:08.315Z,6.40
2019-03-26T04:48:56.703Z,6.40
2019-03-26T04:51:45.499Z,6.50
2019-03-26T04:54:34.583Z,6.50
2019-03-26T04:57:23.403Z,6.40
2019-03-26T05:00:12.953Z,6.50
2019-03-26T05:03:02.335Z,6.50
2019-03-26T05:05:51.312Z,6.50
2019-03-26T05:08:39.972Z,6.60
2019-03-26T05:11:28.893Z,6.60
2019-03-26T05:14:17.939Z,6.60
2019-03-26T05:17:07.023Z,6.70
2019-03-26T05:19:55.563Z,6.80
2019-03-26T05:22:44.096Z,6.80
2019-03-26T05:25:32.540Z,6.80
2019-03-26T05:28:21.182Z,6.70
2019-03-26T05:31:09.942Z,6.70
2019-03-26T05:33:58.670Z,6.60
2019-03-26T05:36:51.426Z,6.70
2019-03-26T05:39:37.761Z,6.70
2019-03-26T05:42:26.537Z,6.60
2019-03-26T05:45:15.183Z,6.60
2019-03-26T05:48:04.359Z,6.40
2019-03-26T05:50:52.809Z,6.40
2019-03-26T05:53:41.379Z,6.40
2019-03-26T05:56:30.660Z,6.30
2019-03-26T05:59:19.723Z,6.30
2019-03-26T06:02:15.135Z,6.30
2019-03-26T06:04:59.824Z,6.40
2019-03-26T06:07:48.639Z,6.40
2019-03-26T06:10:37.432Z,6.40
2019-03-26T06:13:26.664Z,6.50
2019-03-26T06:16:15.575Z,6.50
2019-03-26T06:19:04.795Z,6.60
2019-03-26T06:21:53.410Z,6.70
2019-03-26T06:24:41.992Z,6.70
2019-03-26T06:27:30.619Z,6.70
2019-03-26T06:30:19.400Z,6.70
2019-03-26T06:33:08.305Z,6.70
2019-03-26T06:35:56.344Z,6.80
2019-03-26T06:38:44.886Z,6.90
2019-03-26T06:41:33.607Z,7.00
2019-03-26T06:44:22.103Z,7.10
2019-03-26T06:47:10.903Z,7.10
2019-03-26T06:49:59.843Z,7.10
2019-03-26T06:52:48.636Z,7.10
2019-03-26T06:55:37.406Z,7.00
2019-03-26T06:58:26.101Z,7.00
2019-03-26T07:01:14.768Z,7.00
2019-03-26T07:04:04.083Z,7.00
2019-03-26T07:06:52.695Z,7.10
2019-03-26T07:09:41.541Z,7.30
2019-03-26T07:12:30.553Z,7.20
2019-03-26T07:15:18.780Z,7.30
2019-03-26T07:18:07.506Z,7.60
2019-03-26T07:20:55.776Z,7.70
2019-03-26T07:23:44.476Z,7.90
2019-03-26T07:26:33.463Z,7.70
2019-03-26T07:29:22.157Z,7.80
2019-03-26T07:32:10.709Z,7.70
2019-03-26T07:34:59.250Z,7.60
2019-03-26T07:37:48.209Z,7.80
2019-03-26T07:40:36.890Z,8.10
2019-03-26T07:43:25.719Z,8.10
2019-03-26T07:46:13.959Z,8.20
2019-03-26T07:49:02.646Z,8.20
2019-03-26T07:51:51.167Z,8.00
2019-03-26T07:54:39.704Z,7.90
2019-03-26T07:57:27.787Z,7.80
2019-03-26T08:00:19.280Z,7.90
2019-03-26T08:03:07.919Z,8.00
2019-03-26T08:05:56.646Z,8.10
2019-03-26T08:08:45.714Z,8.30
2019-03-26T08:11:35.153Z,8.70
2019-03-26T08:14:23.915Z,8.70
2019-03-26T08:17:12.838Z,8.60
2019-03-26T08:20:01.793Z,8.70
2019-03-26T08:22:50.561Z,9.20
2019-03-26T08:25:38.951Z,9.50
2019-03-26T08:28:27.624Z,9.30
2019-03-26T08:31:15.695Z,9.60
2019-03-26T08:34:04.223Z,9.40
2019-03-26T08:36:52.601Z,9.70
2019-03-26T08:39:41.431Z,10.40
2019-03-26T08:42:29.939Z,10.60
2019-03-26T08:45:19.067Z,10.20
2019-03-26T08:48:07.880Z,11.00
2019-03-26T08:50:55.937Z,11.80
2019-03-26T08:53:45.047Z,11.90
2019-03-26T08:56:33.331Z,11.80
2019-03-26T08:59:21.851Z,11.50
2019-03-26T09:02:10.343Z,11.50
2019-03-26T09:04:59.459Z,10.80
2019-03-26T09:07:48.146Z,10.40
2019-03-26T09:10:36.171Z,11.00
2019-03-26T09:13:24.873Z,11.90
2019-03-26T09:16:13.469Z,12.60
2019-03-26T09:19:02.207Z,13.60
2019-03-26T09:21:51.106Z,14.20
2019-03-26T09:24:40.079Z,15.20
2019-03-26T09:27:29.106Z,15.20
2019-03-26T09:30:19.075Z,14.00
2019-03-26T09:33:07.871Z,14.50
2019-03-26T09:35:56.752Z,15.40
2019-03-26T09:38:45.545Z,15.60
2019-03-26T09:41:34.414Z,14.70
2019-03-26T09:44:23.233Z,12.80
2019-03-26T09:47:16.525Z,12.20
2019-03-26T09:50:01.887Z,11.70
2019-03-26T09:52:50.404Z,11.10
2019-03-26T09:55:38.727Z,10.80
2019-03-26T09:58:27.167Z,10.30
2019-03-26T10:01:15.659Z,10.20
2019-03-26T10:04:04.794Z,10.20
2019-03-26T10:06:53.658Z,9.80
2019-03-26T10:09:41.755Z,9.90
2019-03-26T10:12:30.293Z,9.60
2019-03-26T10:15:18.754Z,9.60
2019-03-26T10:18:07.395Z,9.50
2019-03-26T10:20:55.394Z,9.30
2019-03-26T10:23:44.189Z,9.30
2019-03-26T10:26:33.199Z,9.20
2019-03-26T10:29:30.054Z,9.30
2019-03-26T10:32:12.175Z,9.20
2019-03-26T10:35:00.986Z,9.20
2019-03-26T10:37:49.831Z,9.20
2019-03-26T10:40:39.242Z,9.20
2019-03-26T10:43:27.849Z,9.30
2019-03-26T10:46:16.446Z,9.30
2019-03-26T10:49:05.617Z,9.20
2019-03-26T10:51:54.647Z,9.50
2019-03-26T10:54:43.668Z,9.80
2019-03-26T10:57:32.059Z,10.00
2019-03-26T11:00:21.219Z,10.30
2019-03-26T11:03:10.641Z,10.40
2019-03-26T11:05:59.723Z,10.20
2019-03-26T11:08:47.915Z,9.80
2019-03-26T11:11:36.435Z,9.90
2019-03-26T11:14:25.122Z,10.50
2019-03-26T11:17:14.417Z,11.80
2019-03-26T11:20:04.460Z,13.20
2019-03-26T11:22:52.938Z,13.70
2019-03-26T11:25:42.084Z,13.90
2019-03-26T11:28:31.165Z,13.40
2019-03-26T11:31:20.204Z,12.10
2019-03-26T11:34:09.466Z,11.40
2019-03-26T11:36:58.364Z,12.10
2019-03-26T11:39:47.238Z,13.90
2019-03-26T11:42:35.875Z,14.60
2019-03-26T11:45:25.141Z,14.40
2019-03-26T11:48:13.565Z,13.60
2019-03-26T11:51:01.689Z,12.60
2019-03-26T11:53:50.979Z,12.20
2019-03-26T11:56:39.705Z,11.70
2019-03-26T11:59:27.753Z,11.70
2019-03-26T12:02:16.857Z,12.00
2019-03-26T12:05:06.116Z,12.20
2019-03-26T12:07:54.738Z,11.70
2019-03-26T12:10:43.044Z,11.80
2019-03-26T12:13:32.071Z,11.20
2019-03-26T12:16:21.196Z,10.90
2019-03-26T12:19:10.455Z,10.80
2019-03-26T12:21:59.058Z,11.00
2019-03-26T12:24:47.123Z,11.30
2019-03-26T12:27:36.702Z,11.20
2019-03-26T12:30:36.647Z,10.80
2019-03-26T12:33:25.108Z,10.40
2019-03-26T12:36:13.951Z,10.00
2019-03-26T12:39:04.047Z,9.70
2019-03-26T12:41:52.440Z,9.30
2019-03-26T12:44:40.871Z,8.90
2019-03-26T12:47:29.565Z,8.70
2019-03-26T12:50:18.441Z,8.80
2019-03-26T12:53:07.462Z,8.90
2019-03-26T12:55:56.696Z,8.60
2019-03-26T12:58:44.755Z,8.60
2019-03-26T13:01:33.508Z,8.70
2019-03-26T13:04:22.004Z,8.80
2019-03-26T13:07:10.809Z,9.00
2019-03-26T13:10:12.257Z,9.30
2019-03-26T13:12:50.356Z,9.60
2019-03-26T13:15:38.770Z,9.50
2019-03-26T13:18:27.370Z,9.70
2019-03-26T13:21:15.879Z,9.90
2019-03-26T13:24:05.191Z,10.10
2019-03-26T13:26:54.256Z,10.20
2019-03-26T13:29:43.183Z,10.20
2019-03-26T13:32:31.315Z,10.10
2019-03-26T13:35:20.325Z,10.20
2019-03-26T13:38:09.126Z,10.20
2019-03-26T13:40:57.875Z,9.90
2019-03-26T13:43:46.306Z,9.90
2019-03-26T13:46:34.767Z,9.90
2019-03-26T13:49:23.332Z,9.90
2019-03-26T13:52:11.452Z,9.70
2019-03-26T13:54:59.472Z,9.60
2019-03-26T13:57:47.547Z,9.70
2019-03-26T14:00:38.251Z,9.90
2019-03-26T14:03:26.992Z,9.80
2019-03-26T14:06:15.090Z,9.60
2019-03-26T14:09:05.977Z,9.40
2019-03-26T14:11:57.519Z,9.50
2019-03-26T14:14:45.070Z,9.60
2019-03-26T14:17:33.856Z,9.40
2019-03-26T14:20:22.651Z,9.20
2019-03-26T14:23:11.755Z,9.10
2019-03-26T14:26:00.174Z,9.20
2019-03-26T14:28:49.492Z,9.20
2019-03-26T14:31:38.644Z,9.30
2019-03-26T14:34:27.494Z,9.30
2019-03-26T14:37:16.979Z,9.30
2019-03-26T14:40:06.554Z,9.50
2019-03-26T14:42:54.959Z,9.60
2019-03-26T14:45:43.997Z,9.70
2019-03-26T14:48:32.447Z,9.80
2019-03-26T14:51:23.093Z,9.90
2019-03-26T14:54:11.730Z,9.90
2019-03-26T14:57:00.671Z,9.80
2019-03-26T14:59:49.598Z,9.70
2019-03-26T15:02:38.474Z,9.90
2019-03-26T15:05:26.809Z,9.80
2019-03-26T15:08:15.150Z,9.80
2019-03-26T15:11:08.261Z,9.90
2019-03-26T15:13:54.891Z,10.00
2019-03-26T15:16:43.967Z,10.10
2019-03-26T15:19:33.127Z,10.10
2019-03-26T15:22:21.923Z,10.20
2019-03-26T15:25:11.510Z,10.10
2019-03-26T15:28:00.650Z,10.10
2019-03-26T15:30:49.658Z,9.90
2019-03-26T15:33:38.183Z,9.70
2019-03-26T15:36:28.109Z,9.60
2019-03-26T15:39:16.824Z,9.50
2019-03-26T15:42:05.912Z,9.50
2019-03-26T15:44:54.627Z,9.50
2019-03-26T15:47:42.712Z,9.50
2019-03-26T15:50:39.219Z,9.50
2019-03-26T15:53:27.260Z,9.50
2019-03-26T15:56:15.625Z,9.40
2019-03-26T15:59:04.842Z,9.30
2019-03-26T16:01:53.899Z,9.30
2019-03-26T16:04:43.319Z,9.40
2019-03-26T16:07:33.206Z,9.50
2019-03-26T16:10:22.696Z,9.30
2019-03-26T16:13:11.324Z,9.40
2019-03-26T16:16:00.369Z,9.40
2019-03-26T16:18:49.756Z,9.40
2019-03-26T16:21:38.075Z,9.50
2019-03-26T16:24:27.284Z,9.50
2019-03-26T16:27:16.030Z,9.50
2019-03-26T16:30:06.194Z,9.60
2019-03-26T16:32:54.949Z,9.60
2019-03-26T16:35:43.832Z,9.50
2019-03-26T16:38:32.684Z,9.50
2019-03-26T16:41:21.247Z,9.50
2019-03-26T16:44:09.781Z,9.40
2019-03-26T16:46:58.570Z,9.40
2019-03-26T16:49:47.397Z,9.40
2019-03-26T16:52:36.651Z,9.40
2019-03-26T16:55:25.123Z,9.30
2019-03-26T16:58:13.949Z,9.30
2019-03-26T17:01:02.366Z,9.30
2019-03-26T17:03:51.391Z,9.20
2019-03-26T17:06:40.283Z,9.20
2019-03-26T17:09:29.101Z,9.20
2019-03-26T17:12:17.126Z,9.30
2019-03-26T17:15:07.207Z,9.30
2019-03-26T17:17:55.323Z,9.10
2019-03-26T17:20:43.543Z,9.10
2019-03-26T17:23:31.738Z,9.10
2019-03-26T17:26:20.826Z,9.00
2019-03-26T17:29:09.045Z,9.00
2019-03-26T17:31:58.022Z,8.90
2019-03-26T17:34:47.317Z,8.80
2019-03-26T17:37:36.307Z,8.90
2019-03-26T17:40:25.216Z,8.90
2019-03-26T17:43:13.424Z,8.90
2019-03-26T17:46:02.539Z,8.90
2019-03-26T17:48:51.869Z,8.90
2019-03-26T17:51:41.012Z,8.80
2019-03-26T17:54:29.892Z,8.80
2019-03-26T17:57:18.942Z,8.80
2019-03-26T18:00:09.119Z,8.80
2019-03-26T18:02:58.097Z,8.80
2019-03-26T18:05:46.914Z,8.80
2019-03-26T18:08:35.736Z,8.80
2019-03-26T18:11:24.499Z,8.80
2019-03-26T18:14:13.018Z,8.80
2019-03-26T18:17:01.596Z,8.80
2019-03-26T18:19:50.439Z,8.90
2019-03-26T18:22:38.572Z,8.80
2019-03-26T18:25:27.023Z,8.80
2019-03-26T18:28:15.598Z,8.80
2019-03-26T18:31:04.403Z,8.80
2019-03-26T18:33:53.253Z,8.80
2019-03-26T18:36:41.767Z,8.80
2019-03-26T18:39:30.467Z,8.80
2019-03-26T18:42:18.811Z,8.80
2019-03-26T18:45:08.315Z,8.70
2019-03-26T18:47:57.220Z,8.70
2019-03-26T18:50:45.593Z,8.70
2019-03-26T18:53:34.098Z,8.70
2019-03-26T18:56:23.086Z,8.70
2019-03-26T18:59:12.268Z,8.70
2019-03-26T19:02:01.260Z,8.70
2019-03-26T19:04:49.345Z,8.60
2019-03-26T19:07:38.226Z,8.70
2019-03-26T19:10:29.079Z,8.70
2019-03-26T19:13:19.813Z,8.70
2019-03-26T19:16:07.807Z,8.60
2019-03-26T19:18:55.835Z,8.70
2019-03-26T19:21:44.890Z,8.70
2019-03-26T19:24:33.606Z,8.70
2019-03-26T19:27:22.354Z,8.70
2019-03-26T19:30:11.949Z,8.60
2019-03-26T19:33:00.854Z,8.60
2019-03-26T19:35:49.565Z,8.60
2019-03-26T19:38:37.609Z,8.60
2019-03-26T19:41:25.962Z,8.60
2019-03-26T19:44:14.371Z,8.60
2019-03-26T19:47:03.296Z,8.50
2019-03-26T19:49:51.318Z,8.50
2019-03-26T19:52:40.407Z,8.60
2019-03-26T19:55:29.195Z,8.60
2019-03-26T19:58:18.116Z,8.60
2019-03-26T20:01:06.791Z,8.60
2019-03-26T20:03:56.494Z,8.60
2019-03-26T20:06:45.272Z,8.60
2019-03-26T20:09:33.900Z,8.50
2019-03-26T20:12:23.292Z,8.60
2019-03-26T20:15:12.890Z,8.60
2019-03-26T20:18:02.221Z,8.50
2019-03-26T20:20:51.612Z,8.50
2019-03-26T20:23:40.438Z,8.50
2019-03-26T20:26:29.719Z,8.50
2019-03-26T20:29:18.229Z,8.50
2019-03-26T20:32:06.874Z,8.50
2019-03-26T20:34:55.647Z,8.40
2019-03-26T20:37:44.238Z,8.40
2019-03-26T20:40:33.107Z,8.30
2019-03-26T20:43:22.263Z,8.40
2019-03-26T20:46:11.434Z,8.40
2019-03-26T20:48:59.762Z,8.40
2019-03-26T20:51:48.014Z,8.40
2019-03-26T20:54:44.250Z,8.30
2019-03-26T20:57:33.018Z,8.30
2019-03-26T21:00:36.517Z,8.30
2019-03-26T21:03:25.584Z,8.40
2019-03-26T21:06:14.154Z,8.30
2019-03-26T21:09:02.750Z,8.30
2019-03-26T21:11:51.208Z,8.30
2019-03-26T21:14:40.409Z,8.30
2019-03-26T21:17:29.536Z,8.30
2019-03-26T21:20:17.994Z,8.30
2019-03-26T21:23:06.675Z,8.30
2019-03-26T21:25:55.244Z,8.30
2019-03-26T21:28:44.480Z,8.30
2019-03-26T21:31:33.064Z,8.30
2019-03-26T21:34:30.279Z,8.30
2019-03-26T21:37:11.559Z,8.30
2019-03-26T21:40:00.147Z,8.30
2019-03-26T21:42:48.766Z,8.30
2019-03-26T21:45:39.369Z,8.20
2019-03-26T21:48:28.256Z,8.20
2019-03-26T21:51:16.923Z,8.20
2019-03-26T21:54:05.791Z,8.30
2019-03-26T21:56:54.295Z,8.30
2019-03-26T21:59:43.685Z,8.20
2019-03-26T22:02:32.562Z,8.30
2019-03-26T22:05:21.512Z,8.40
2019-03-26T22:08:10.504Z,8.40
2019-03-26T22:10:59.518Z,8.40
2019-03-26T22:13:48.252Z,8.30
2019-03-26T22:16:37.043Z,8.30
2019-03-26T22:19:28.886Z,8.30
2019-03-26T22:22:15.939Z,8.20
2019-03-26T22:25:05.837Z,8.20
2019-03-26T22:27:54.604Z,8.20
2019-03-26T22:30:44.013Z,8.20
2019-03-26T22:33:32.491Z,8.20
2019-03-26T22:36:21.479Z,8.20
2019-03-26T22:39:10.236Z,8.20
2019-03-26T22:41:58.303Z,8.20
2019-03-26T22:44:46.907Z,8.20
2019-03-26T22:47:35.946Z,8.10
2019-03-26T22:50:28.012Z,8.00
2019-03-26T22:53:16.631Z,8.00
2019-03-26T22:56:05.933Z,7.80
2019-03-26T22:58:55.245Z,7.80
2019-03-26T23:01:43.888Z,7.70
2019-03-26T23:04:32.498Z,7.70
2019-03-26T23:07:20.788Z,7.70
2019-03-26T23:10:11.350Z,7.70
2019-03-26T23:12:59.944Z,7.70
2019-03-26T23:15:48.032Z,7.70
2019-03-26T23:18:36.183Z,7.60
2019-03-26T23:21:25.015Z,7.40
2019-03-26T23:24:14.495Z,7.20
2019-03-26T23:27:04.098Z,7.20
2019-03-26T23:29:53.032Z,7.20
2019-03-26T23:32:41.810Z,7.20
2019-03-26T23:35:31.147Z,7.20
2019-03-26T23:38:20.358Z,7.10
2019-03-26T23:41:09.047Z,7.10
2019-03-26T23:43:57.851Z,7.10
2019-03-26T23:46:46.856Z,7.20
2019-03-26T23:49:36.300Z,7.20
2019-03-26T23:52:25.487Z,7.30
2019-03-26T23:55:13.895Z,7.20
2019-03-26T23:58:03.350Z,7.20
